Time;durP1;ratioP1;P1;durP2;ratioP2;P2;SDS_P1;SDS_P2;PMS_P1;PMS_P2;Temp;Humidity;BMP_temperature;BMP_pressure;BME280_temperature;BME280_humidity;BME280_pressure;Samples;Min_cycle;Max_cycle;Signal;HPM_P1;HPM_P2
2021/04/12 00:02:29;;;;;;;5.53;3.60;;;13.70;93.00;;;;;;5056730;28;20627;-72
2021/04/12 00:05:11;;;;;;;5.03;3.67;;;13.70;93.00;;;;;;5054525;28;20204;-71
2021/04/12 00:07:43;;;;;;;4.83;3.33;;;13.70;92.90;;;;;;5051714;28;20204;-71
2021/04/12 00:10:17;;;;;;;7.00;3.33;;;13.70;92.90;;;;;;5059256;28;20296;-71
2021/04/12 00:12:51;;;;;;;4.63;3.40;;;13.70;92.90;;;;;;5055003;28;20204;-71
2021/04/12 00:15:26;;;;;;;4.13;3.33;;;13.70;92.90;;;;;;5054019;28;20327;-71
2021/04/12 00:17:56;;;;;;;4.30;3.47;;;13.60;92.90;;;;;;5061367;28;20229;-70
2021/04/12 00:20:29;;;;;;;7.23;3.57;;;13.60;92.90;;;;;;5056260;28;20216;-71
2021/04/12 00:23:01;;;;;;;4.30;3.00;;;13.60;92.80;;;;;;5054543;28;20205;-71
2021/04/12 00:25:35;;;;;;;4.93;3.33;;;13.60;92.80;;;;;;5056021;28;20690;-71
2021/04/12 00:28:05;;;;;;;4.50;3.53;;;13.60;92.90;;;;;;5053830;28;20704;-69
2021/04/12 00:30:35;;;;;;;5.17;3.10;;;13.60;92.80;;;;;;5055852;28;20206;-70
2021/04/12 00:33:07;;;;;;;7.63;3.40;;;13.60;92.80;;;;;;5052169;28;20206;-69
2021/04/12 00:35:38;;;;;;;6.80;3.60;;;13.60;92.70;;;;;;5061459;28;20202;-70
2021/04/12 00:38:11;;;;;;;6.13;3.30;;;13.60;92.60;;;;;;5059637;28;20210;-70
2021/04/12 00:40:44;;;;;;;4.13;3.00;;;13.60;92.50;;;;;;5052692;28;20329;-70
2021/04/12 00:43:25;;;;;;;5.40;3.13;;;13.60;92.30;;;;;;5054905;28;20675;-71
2021/04/12 00:46:07;;;;;;;6.70;3.47;;;13.60;92.30;;;;;;5055971;28;20264;-70
2021/04/12 00:49:03;;;;;;;7.17;3.57;;;13.60;92.20;;;;;;5052256;28;20207;-70
2021/04/12 00:51:40;;;;;;;6.40;3.90;;;13.60;92.00;;;;;;5052445;28;20218;-70
2021/04/12 00:54:45;;;;;;;5.07;2.77;;;13.60;92.20;;;;;;5048233;28;20243;-70
2021/04/12 00:57:31;;;;;;;4.13;2.90;;;13.60;91.90;;;;;;5029451;28;20206;-70
2021/04/12 01:00:06;;;;;;;3.83;3.07;;;13.60;91.80;;;;;;5045860;28;20513;-71
2021/04/12 01:02:39;;;;;;;5.57;3.33;;;13.60;91.80;;;;;;5053707;28;20265;-70
2021/04/12 01:05:16;;;;;;;4.87;2.90;;;13.60;91.60;;;;;;5048226;28;20207;-70
2021/04/12 01:08:14;;;;;;;5.13;3.60;;;13.60;91.90;;;;;;5057623;28;20193;-71
2021/04/12 01:10:59;;;;;;;5.70;2.93;;;13.60;91.40;;;;;;5049838;28;20281;-71
2021/04/12 01:14:15;;;;;;;5.03;3.07;;;13.60;91.40;;;;;;5051714;28;20229;-71
2021/04/12 01:16:56;;;;;;;4.60;3.20;;;13.60;91.20;;;;;;5046747;28;20320;-71
2021/04/12 01:20:07;;;;;;;4.93;3.20;;;13.60;91.10;;;;;;5048815;28;20218;-71
2021/04/12 01:23:07;;;;;;;4.30;3.30;;;13.50;91.00;;;;;;5057747;28;20213;-70
2021/04/12 01:26:21;;;;;;;4.33;2.80;;;13.50;90.90;;;;;;5058027;28;20290;-70
2021/04/12 01:29:26;;;;;;;4.23;3.30;;;13.50;90.80;;;;;;5049077;28;20220;-70
2021/04/12 01:32:29;;;;;;;4.63;2.77;;;13.50;90.80;;;;;;5045940;28;20647;-71
2021/04/12 01:35:28;;;;;;;3.93;3.33;;;13.60;90.70;;;;;;5069478;28;20258;-71
2021/04/12 01:38:01;;;;;;;4.53;3.00;;;13.50;90.90;;;;;;5055072;28;20376;-71
2021/04/12 01:40:54;;;;;;;4.50;3.17;;;13.50;90.50;;;;;;5057151;28;20210;-70
2021/04/12 01:43:28;;;;;;;6.47;3.03;;;13.50;90.40;;;;;;5056181;28;20721;-71
2021/04/12 01:45:59;;;;;;;4.13;3.17;;;13.50;90.30;;;;;;5057044;28;20609;-70
2021/04/12 01:48:52;;;;;;;4.30;2.87;;;13.50;90.20;;;;;;5056806;28;20201;-71
2021/04/12 01:51:52;;;;;;;6.70;3.07;;;13.50;90.10;;;;;;5057571;28;20688;-71
2021/04/12 01:54:42;;;;;;;4.90;3.00;;;13.50;90.00;;;;;;5056427;28;20236;-69
2021/04/12 01:57:39;;;;;;;4.67;2.87;;;13.50;90.00;;;;;;5056274;28;20688;-69
2021/04/12 02:00:47;;;;;;;5.30;3.10;;;13.50;89.50;;;;;;5053314;28;20631;-70
2021/04/12 02:03:28;;;;;;;4.40;3.13;;;13.50;89.20;;;;;;5014977;28;20207;-70
2021/04/12 02:06:22;;;;;;;4.00;3.30;;;13.50;88.70;;;;;;5014972;28;20198;-71
2021/04/12 02:08:59;;;;;;;3.23;2.83;;;13.50;88.50;;;;;;5030447;28;20289;-70
2021/04/12 02:11:49;;;;;;;4.63;3.37;;;13.50;88.50;;;;;;5055859;28;20216;-71
2021/04/12 02:14:39;;;;;;;3.30;2.73;;;13.40;88.40;;;;;;5052630;28;20228;-70
2021/04/12 02:17:13;;;;;;;3.50;2.80;;;13.40;88.40;;;;;;5054161;28;20583;-72
2021/04/12 02:20:01;;;;;;;4.73;2.77;;;13.40;88.40;;;;;;5042449;28;20268;-71
2021/04/12 02:23:00;;;;;;;2.93;2.63;;;13.40;88.40;;;;;;5053532;28;20659;-70
2021/04/12 02:25:45;;;;;;;5.23;3.00;;;13.30;88.30;;;;;;5056337;28;20206;-71
2021/04/12 02:28:36;;;;;;;4.47;3.17;;;13.30;88.30;;;;;;5054283;28;20691;-70
2021/04/12 02:31:21;;;;;;;4.83;2.77;;;13.30;88.30;;;;;;5055661;28;20675;-70
2021/04/12 02:33:57;;;;;;;4.13;3.27;;;13.30;88.40;;;;;;5061908;28;20201;-70
2021/04/12 02:36:38;;;;;;;5.37;2.73;;;13.20;88.30;;;;;;5057613;28;20737;-71
2021/04/12 02:39:21;;;;;;;6.87;2.60;;;13.20;88.30;;;;;;5055757;28;20236;-72
2021/04/12 02:42:01;;;;;;;4.67;2.93;;;13.20;88.40;;;;;;5056263;28;20266;-71
2021/04/12 02:45:00;;;;;;;3.20;2.90;;;13.20;88.50;;;;;;5055465;28;20202;-70
2021/04/12 02:47:50;;;;;;;3.57;2.93;;;13.20;88.60;;;;;;5051705;28;20713;-70
2021/04/12 02:50:32;;;;;;;4.43;2.53;;;13.10;88.60;;;;;;5043656;28;20380;-70
2021/04/12 02:53:09;;;;;;;4.23;3.17;;;13.10;88.70;;;;;;5056100;28;20736;-69
2021/04/12 02:56:09;;;;;;;3.07;2.73;;;13.10;88.80;;;;;;5054937;28;20220;-70
2021/04/12 02:59:22;;;;;;;4.77;2.60;;;13.10;89.00;;;;;;5054700;28;20230;-70
2021/04/12 03:02:36;;;;;;;5.40;2.90;;;13.10;89.10;;;;;;5050622;28;20678;-70
2021/04/12 03:05:21;;;;;;;4.90;2.70;;;13.10;89.20;;;;;;5050353;28;20255;-70
2021/04/12 03:08:18;;;;;;;4.57;3.00;;;13.10;89.20;;;;;;5055247;28;20202;-71
2021/04/12 03:11:23;;;;;;;4.33;3.10;;;13.00;89.30;;;;;;5046086;28;20210;-70
2021/04/12 03:14:11;;;;;;;6.70;3.60;;;13.00;89.40;;;;;;5041330;28;20715;-70
2021/04/12 03:16:57;;;;;;;6.20;4.17;;;13.00;89.60;;;;;;5055175;28;20378;-70
2021/04/12 03:19:53;;;;;;;5.13;3.97;;;12.90;89.70;;;;;;5054802;28;20565;-71
2021/04/12 03:22:47;;;;;;;6.23;3.70;;;12.90;89.90;;;;;;5050094;28;20210;-71
2021/04/12 03:25:41;;;;;;;6.80;4.00;;;12.90;90.00;;;;;;5055186;28;20542;-70
2021/04/12 03:28:44;;;;;;;7.30;4.03;;;12.90;90.40;;;;;;5055596;28;20277;-71
2021/04/12 03:31:34;;;;;;;6.67;3.70;;;12.80;90.20;;;;;;5055535;28;20216;-71
2021/04/12 03:34:12;;;;;;;5.53;3.70;;;12.80;90.40;;;;;;5054902;28;20237;-71
2021/04/12 03:36:58;;;;;;;6.63;3.77;;;12.80;90.50;;;;;;5054203;28;20204;-71
2021/04/12 03:39:28;;;;;;;7.43;3.93;;;12.80;90.70;;;;;;5055351;28;20272;-71
2021/04/12 03:42:16;;;;;;;5.93;3.57;;;12.70;90.80;;;;;;5057858;28;20208;-71
2021/04/12 03:45:20;;;;;;;5.80;3.33;;;12.70;91.00;;;;;;5055198;28;20261;-70
2021/04/12 03:48:26;;;;;;;6.00;3.33;;;12.70;91.10;;;;;;5053879;28;20706;-70
2021/04/12 03:51:34;;;;;;;5.40;3.20;;;12.70;91.30;;;;;;5046266;28;20555;-71
2021/04/12 03:54:37;;;;;;;7.37;3.27;;;12.70;91.50;;;;;;5044344;28;20546;-71
2021/04/12 03:57:44;;;;;;;6.63;3.20;;;12.70;91.60;;;;;;5054581;28;20649;-70
2021/04/12 04:00:44;;;;;;;6.97;3.63;;;12.70;91.80;;;;;;5053977;28;20220;-69
2021/04/12 04:03:38;;;;;;;3.73;2.77;;;12.70;91.90;;;;;;5054685;28;20201;-69
2021/04/12 04:06:57;;;;;;;4.83;3.13;;;12.70;92.00;;;;;;5052990;28;20615;-70
2021/04/12 04:09:39;;;;;;;4.73;3.43;;;12.70;92.00;;;;;;5027922;28;20203;-69
2021/04/12 04:12:18;;;;;;;4.17;2.77;;;12.70;92.10;;;;;;5030265;28;20202;-68
2021/04/12 04:15:20;;;;;;;5.23;3.23;;;12.70;92.20;;;;;;5043213;28;20325;-69
2021/04/12 04:18:12;;;;;;;4.30;3.23;;;12.70;92.20;;;;;;5055209;28;20289;-69
2021/04/12 04:20:55;;;;;;;7.80;2.90;;;12.70;92.30;;;;;;5051645;28;20213;-69
2021/04/12 04:23:40;;;;;;;4.50;3.13;;;12.70;92.40;;;;;;5052103;28;20280;-70
2021/04/12 04:26:22;;;;;;;4.23;2.87;;;12.80;92.40;;;;;;5048387;28;20198;-69
2021/04/12 04:29:27;;;;;;;4.33;3.00;;;12.80;92.50;;;;;;5052563;28;20204;-69
2021/04/12 04:32:29;;;;;;;7.00;3.40;;;12.80;92.50;;;;;;5051296;28;20214;-69
2021/04/12 04:35:23;;;;;;;6.10;3.10;;;12.80;92.50;;;;;;5054450;28;20288;-70
2021/04/12 04:38:27;;;;;;;3.63;2.90;;;12.80;92.50;;;;;;5049988;28;20225;-69
2021/04/12 04:41:14;;;;;;;6.00;3.20;;;12.90;92.50;;;;;;5056771;28;20209;-69
2021/04/12 04:44:00;;;;;;;6.97;2.97;;;12.80;92.50;;;;;;5050679;28;20662;-69
2021/04/12 04:46:37;;;;;;;5.80;3.27;;;12.90;92.50;;;;;;5054755;28;20213;-69
2021/04/12 04:49:39;;;;;;;4.40;3.00;;;12.80;92.50;;;;;;5061703;28;20289;-68
2021/04/12 04:52:23;;;;;;;5.57;3.10;;;12.90;92.60;;;;;;5054122;28;20599;-69
2021/04/12 04:55:23;;;;;;;3.97;3.20;;;12.90;92.60;;;;;;5059727;28;20345;-69
2021/04/12 04:58:00;;;;;;;3.87;3.00;;;12.90;92.60;;;;;;5053695;28;20605;-69
2021/04/12 05:00:52;;;;;;;4.03;2.90;;;12.90;92.70;;;;;;5056392;28;20198;-69
2021/04/12 05:03:40;;;;;;;5.03;2.93;;;12.90;92.70;;;;;;5057422;28;20302;-70
2021/04/12 05:06:33;;;;;;;4.23;3.37;;;12.90;92.60;;;;;;5051820;28;20212;-69
2021/04/12 05:09:24;;;;;;;5.73;3.37;;;12.90;92.90;;;;;;5055469;28;20201;-69
2021/04/12 05:12:10;;;;;;;7.00;3.10;;;13.00;92.60;;;;;;5051770;28;20198;-70
2021/04/12 05:15:01;;;;;;;5.13;3.40;;;13.00;92.70;;;;;;5054070;28;20224;-69
2021/04/12 05:18:02;;;;;;;4.97;3.30;;;13.10;92.60;;;;;;5056055;28;20317;-69
2021/04/12 05:21:05;;;;;;;5.93;3.23;;;13.10;92.60;;;;;;5051643;28;20201;-70
2021/04/12 05:23:53;;;;;;;6.47;3.40;;;13.10;92.40;;;;;;5051899;28;20206;-70
2021/04/12 05:26:29;;;;;;;6.53;2.97;;;13.10;92.50;;;;;;5059287;28;20201;-69
2021/04/12 05:29:49;;;;;;;5.90;3.30;;;13.10;92.50;;;;;;5055863;28;20190;-70
2021/04/12 05:32:22;;;;;;;4.03;3.37;;;13.10;92.50;;;;;;5023839;28;20202;-70
2021/04/12 05:35:02;;;;;;;4.80;3.50;;;13.10;92.50;;;;;;5052297;28;20202;-70
2021/04/12 05:37:55;;;;;;;4.47;3.40;;;13.10;92.40;;;;;;5054459;28;20206;-71
2021/04/12 05:40:48;;;;;;;5.30;3.20;;;13.20;92.40;;;;;;5056353;28;20197;-72
2021/04/12 05:43:24;;;;;;;6.40;4.23;;;13.40;92.20;;;;;;5057297;28;20198;-71
2021/04/12 05:46:23;;;;;;;5.27;3.13;;;13.50;91.90;;;;;;5055617;28;20198;-71
2021/04/12 05:49:16;;;;;;;7.00;3.43;;;13.50;91.80;;;;;;5057062;28;20626;-71
2021/04/12 05:52:11;;;;;;;4.30;3.03;;;13.60;91.60;;;;;;5056400;28;20213;-71
2021/04/12 05:55:16;;;;;;;8.50;3.80;;;13.70;91.20;;;;;;5057213;28;20296;-70
2021/04/12 05:58:05;;;;;;;6.00;3.40;;;13.80;91.00;;;;;;5052867;28;20287;-71
2021/04/12 06:00:39;;;;;;;5.13;3.63;;;13.80;90.90;;;;;;5044776;28;20202;-71
2021/04/12 06:03:15;;;;;;;7.67;3.67;;;13.90;90.60;;;;;;5056702;28;20202;-70
2021/04/12 06:06:02;;;;;;;8.33;3.67;;;14.00;90.30;;;;;;5051228;28;20209;-71
2021/04/12 06:08:56;;;;;;;5.27;3.50;;;14.00;90.00;;;;;;5056725;28;20280;-70
2021/04/12 06:11:54;;;;;;;8.43;3.90;;;14.10;89.30;;;;;;5055204;28;20210;-70
2021/04/12 06:15:01;;;;;;;5.33;3.73;;;14.10;89.20;;;;;;5054905;28;20589;-72
2021/04/12 06:17:59;;;;;;;4.60;3.60;;;14.20;88.50;;;;;;5048874;28;20592;-70
2021/04/12 06:20:53;;;;;;;8.73;4.33;;;14.30;88.30;;;;;;5045936;28;20293;-70
2021/04/12 06:26:48;;;;;;;7.30;4.17;;;14.50;87.10;;;;;;5111775;27;20528;-70
2021/04/12 06:29:47;;;;;;;5.67;3.57;;;14.60;86.20;;;;;;5109602;28;20237;-71
2021/04/12 06:32:38;;;;;;;7.60;4.27;;;14.60;85.80;;;;;;5111276;28;20274;-70
2021/04/12 06:35:45;;;;;;;8.37;4.60;;;14.70;86.00;;;;;;5109422;28;20249;-69
2021/04/12 06:38:30;;;;;;;7.23;4.70;;;14.80;84.70;;;;;;5104812;28;20203;-66
2021/04/12 06:41:35;;;;;;;5.20;4.03;;;14.90;83.80;;;;;;5105259;28;20203;-69
2021/04/12 06:44:25;;;;;;;7.50;4.20;;;15.00;83.00;;;;;;5090172;28;20348;-70
2021/04/12 06:47:14;;;;;;;9.87;4.30;;;15.10;82.40;;;;;;5110412;28;20188;-70
2021/04/12 06:50:29;;;;;;;7.53;4.40;;;15.20;82.00;;;;;;5106383;28;20612;-70
2021/04/12 06:53:59;;;;;;;7.20;4.30;;;15.20;81.50;;;;;;5104870;28;20651;-69
2021/04/12 06:57:10;;;;;;;7.00;4.30;;;15.40;80.50;;;;;;5104217;28;20200;-70
2021/04/12 07:00:16;;;;;;;7.47;4.40;;;15.50;80.20;;;;;;5066548;28;20200;-69
2021/04/12 07:03:31;;;;;;;9.63;4.47;;;15.60;79.30;;;;;;5106112;28;20279;-71
2021/04/12 07:06:23;;;;;;;7.47;4.10;;;15.70;78.40;;;;;;5101359;28;20220;-70
2021/04/12 07:09:33;;;;;;;4.73;3.80;;;15.80;78.00;;;;;;5109574;28;20287;-68
2021/04/12 07:12:42;;;;;;;7.40;3.80;;;15.80;76.80;;;;;;5102808;28;20756;-68
2021/04/12 07:15:41;;;;;;;8.30;3.87;;;15.90;76.20;;;;;;5092753;28;20217;-70
2021/04/12 07:18:44;;;;;;;5.23;3.57;;;15.90;75.40;;;;;;5045459;28;20201;-67
2021/04/12 07:21:52;;;;;;;7.03;3.97;;;16.00;74.40;;;;;;5088039;28;20299;-70
2021/04/12 07:24:51;;;;;;;6.47;3.87;;;16.00;73.80;;;;;;5094608;28;20265;-71
2021/04/12 07:27:59;;;;;;;5.67;2.97;;;16.10;73.90;;;;;;5106710;28;20196;-69
2021/04/12 07:31:16;;;;;;;5.50;3.57;;;16.20;72.90;;;;;;5108848;28;20200;-70
2021/04/12 07:34:12;;;;;;;7.03;3.73;;;16.40;72.30;;;;;;5112518;28;20734;-70
2021/04/12 07:37:31;;;;;;;5.90;3.70;;;16.50;71.20;;;;;;5097232;27;20507;-69
2021/04/12 07:40:53;;;;;;;5.00;3.37;;;16.70;70.80;;;;;;5098437;28;20461;-70
2021/04/12 07:44:05;;;;;;;6.97;4.00;;;16.80;70.50;;;;;;5111383;28;20291;-70
2021/04/12 07:47:14;;;;;;;4.00;3.07;;;17.00;69.40;;;;;;5109784;28;20304;-72
2021/04/12 07:50:13;;;;;;;5.63;3.37;;;17.10;68.40;;;;;;5097304;28;20216;-68
2021/04/12 07:53:25;;;;;;;6.50;3.37;;;17.30;67.50;;;;;;5105223;28;20566;-68
2021/04/12 07:56:36;;;;;;;5.37;3.30;;;17.50;67.20;;;;;;5104112;28;20200;-71
2021/04/12 07:59:41;;;;;;;7.70;3.53;;;17.70;66.40;;;;;;5086893;28;20701;-70
2021/04/12 08:02:44;;;;;;;3.37;3.07;;;17.80;65.00;;;;;;5071607;28;20288;-69
2021/04/12 08:05:42;;;;;;;6.00;3.47;;;18.00;64.60;;;;;;5095018;28;20256;-70
2021/04/12 08:08:41;;;;;;;7.53;3.60;;;18.10;63.90;;;;;;5103533;28;20200;-70
2021/04/12 08:11:49;;;;;;;7.07;3.60;;;18.30;62.90;;;;;;5065970;28;20612;-70
2021/04/12 08:14:52;;;;;;;9.35;3.05;;;18.50;62.60;;;;;;5096333;28;20303;-69
2021/04/12 08:18:03;;;;;;;3.85;3.05;;;18.70;61.50;;;;;;5112389;28;20660;-71
2021/04/12 08:21:10;;;;;;;3.38;2.95;;;18.80;59.80;;;;;;5095220;28;20554;-70
2021/04/12 08:24:11;;;;;;;4.80;2.90;;;19.00;58.90;;;;;;5075633;27;20205;-68
2021/04/12 08:27:08;;;;;;;5.30;3.65;;;19.20;58.20;;;;;;5091793;28;20280;-70
2021/04/12 08:30:03;;;;;;;5.55;3.53;;;19.30;57.50;;;;;;5092265;28;20204;-70
2021/04/12 08:33:09;;;;;;;5.55;3.20;;;19.40;56.90;;;;;;5102816;28;20275;-70
2021/04/12 08:36:40;;;;;;;5.43;3.13;;;19.70;56.00;;;;;;5093629;28;20200;-70
2021/04/12 08:40:02;;;;;;;5.07;3.47;;;19.90;55.70;;;;;;5032097;28;20221;-70
2021/04/12 08:43:40;;;;;;;7.32;3.60;;;20.00;54.70;;;;;;5031646;28;20204;-70
2021/04/12 08:46:52;;;;;;;4.35;2.92;;;20.10;57.20;;;;;;5104433;28;20227;-70
2021/04/12 08:49:55;;;;;;;7.22;3.35;;;20.20;56.10;;;;;;5092189;28;20207;-70
2021/04/12 08:52:55;;;;;;;11.38;3.20;;;20.40;54.80;;;;;;5099119;28;20223;-70
2021/04/12 08:55:49;;;;;;;5.07;3.28;;;20.30;53.80;;;;;;5098213;28;20269;-69
2021/04/12 08:58:39;;;;;;;6.72;3.30;;;20.30;53.70;;;;;;5098482;28;20645;-71
2021/04/12 09:01:29;;;;;;;4.65;2.88;;;20.30;53.10;;;;;;5093869;28;20196;-70
2021/04/12 09:04:33;;;;;;;4.55;3.30;;;20.40;52.60;;;;;;5096332;28;20206;-70
2021/04/12 09:07:31;;;;;;;4.80;3.20;;;20.50;52.40;;;;;;5099076;28;20214;-69
2021/04/12 09:10:20;;;;;;;5.95;2.92;;;20.70;52.40;;;;;;5103555;28;20279;-69
2021/04/12 09:13:16;;;;;;;4.78;2.95;;;20.90;51.60;;;;;;5098032;28;20295;-69
2021/04/12 09:16:09;;;;;;;7.28;2.95;;;21.10;51.30;;;;;;5096932;28;20192;-69
2021/04/12 09:19:22;;;;;;;6.07;3.33;;;21.20;50.40;;;;;;5097279;28;20527;-71
2021/04/12 09:22:19;;;;;;;7.18;3.20;;;21.30;50.20;;;;;;5103787;28;20257;-70
2021/04/12 09:25:28;;;;;;;3.05;2.75;;;21.50;48.90;;;;;;5097814;28;20703;-71
2021/04/12 09:28:26;;;;;;;5.20;3.08;;;21.80;49.00;;;;;;5105834;28;20645;-70
2021/04/12 09:31:16;;;;;;;8.18;3.65;;;22.00;48.50;;;;;;5104479;28;20239;-72
2021/04/12 09:34:17;;;;;;;4.75;2.58;;;22.10;48.60;;;;;;5095427;28;20204;-70
2021/04/12 09:37:03;;;;;;;4.20;2.75;;;22.20;48.30;;;;;;5096819;28;20211;-70
2021/04/12 09:39:52;;;;;;;5.18;2.55;;;22.50;48.00;;;;;;5098810;28;20295;-71
2021/04/12 09:42:53;;;;;;;2.92;2.58;;;22.80;47.40;;;;;;5105205;28;20223;-71
2021/04/12 09:46:09;;;;;;;4.60;2.92;;;23.10;46.30;;;;;;5098368;28;20248;-72
2021/04/12 09:49:13;;;;;;;5.07;2.72;;;23.50;45.80;;;;;;5094312;28;20208;-72
2021/04/12 09:52:12;;;;;;;7.18;2.95;;;23.60;44.70;;;;;;5091541;28;20201;-71
2021/04/12 09:55:16;;;;;;;4.75;2.38;;;23.70;44.50;;;;;;5081105;28;20299;-71
2021/04/12 09:58:19;;;;;;;4.85;2.70;;;23.80;44.10;;;;;;5096794;28;20251;-72
2021/04/12 10:01:22;;;;;;;2.95;2.65;;;23.60;44.10;;;;;;5103699;28;20234;-72
2021/04/12 10:04:13;;;;;;;4.32;2.78;;;23.60;44.30;;;;;;5099179;28;20614;-71
2021/04/12 10:07:07;;;;;;;5.75;3.30;;;23.70;44.00;;;;;;5102129;28;20216;-71
2021/04/12 10:09:47;;;;;;;5.28;2.80;;;23.70;44.10;;;;;;5100185;28;20204;-72
2021/04/12 10:12:32;;;;;;;5.85;2.88;;;23.80;44.00;;;;;;5096708;28;20667;-71
2021/04/12 10:15:05;;;;;;;5.30;3.22;;;23.90;43.90;;;;;;5096312;28;20228;-71
2021/04/12 10:17:40;;;;;;;5.68;2.75;;;24.10;44.00;;;;;;5105046;28;20318;-72
2021/04/12 10:20:14;;;;;;;4.57;2.45;;;24.30;43.60;;;;;;5103550;28;20202;-71
2021/04/12 10:22:55;;;;;;;3.13;2.50;;;24.40;43.00;;;;;;5102184;28;21246;-72
2021/04/12 10:25:30;;;;;;;4.18;2.47;;;24.40;42.80;;;;;;5099239;28;20275;-71
2021/04/12 10:28:19;;;;;;;6.72;2.25;;;24.40;42.80;;;;;;5103459;28;20201;-73
2021/04/12 10:30:55;;;;;;;5.97;2.78;;;24.60;42.40;;;;;;5098623;28;20283;-71
2021/04/12 10:33:36;;;;;;;3.63;2.70;;;25.00;42.10;;;;;;5102871;28;20199;-71
2021/04/12 10:36:10;;;;;;;7.22;2.70;;;25.00;41.50;;;;;;5099267;28;20196;-72
2021/04/12 10:38:40;;;;;;;3.55;2.53;;;25.10;41.00;;;;;;5102086;28;20234;-73
2021/04/12 10:41:23;;;;;;;2.95;2.33;;;25.50;41.20;;;;;;5099798;28;20578;-71
2021/04/12 10:43:56;;;;;;;4.32;2.75;;;25.80;40.60;;;;;;5095642;28;20197;-70
2021/04/12 10:46:27;;;;;;;5.50;2.78;;;26.30;40.80;;;;;;5092450;28;20219;-70
2021/04/12 10:49:01;;;;;;;5.25;2.83;;;26.70;39.90;;;;;;5095089;28;20264;-72
2021/04/12 10:51:35;;;;;;;3.13;2.53;;;27.00;39.40;;;;;;5101982;28;20700;-73
2021/04/12 10:54:40;;;;;;;5.13;2.55;;;27.20;38.50;;;;;;5106231;28;20284;-71
2021/04/12 10:57:13;;;;;;;3.78;2.55;;;27.10;37.50;;;;;;5096571;28;20205;-70
2021/04/12 11:00:02;;;;;;;4.75;2.60;;;26.60;38.40;;;;;;5095195;28;20256;-72
2021/04/12 11:02:46;;;;;;;3.92;2.85;;;26.30;39.10;;;;;;5102149;28;20259;-72
2021/04/12 11:05:16;;;;;;;4.82;2.70;;;26.20;39.00;;;;;;5099173;28;20305;-71
2021/04/12 11:07:55;;;;;;;5.38;2.80;;;25.90;39.00;;;;;;5101534;28;20632;-69
2021/04/12 11:10:33;;;;;;;4.53;2.70;;;25.80;39.50;;;;;;5096874;28;20212;-70
2021/04/12 11:13:05;;;;;;;7.65;3.05;;;25.60;39.40;;;;;;5109309;28;20681;-71
2021/04/12 11:15:54;;;;;;;3.90;2.85;;;25.50;39.60;;;;;;5107416;28;20196;-69
2021/04/12 11:18:29;;;;;;;6.00;2.72;;;25.30;40.00;;;;;;5095960;28;20304;-69
2021/04/12 11:21:06;;;;;;;5.40;2.97;;;25.20;39.80;;;;;;5097480;28;20215;-69
2021/04/12 11:23:38;;;;;;;3.67;2.65;;;25.00;40.10;;;;;;5088466;28;20228;-69
2021/04/12 11:26:18;;;;;;;3.53;2.85;;;24.70;40.70;;;;;;5098546;28;20379;-69
2021/04/12 11:28:54;;;;;;;6.72;2.75;;;24.60;40.70;;;;;;5103076;28;20211;-69
2021/04/12 11:31:43;;;;;;;3.63;2.88;;;24.40;40.70;;;;;;5101035;28;20682;-69
2021/04/12 11:34:19;;;;;;;2.85;2.65;;;24.20;41.00;;;;;;5101636;28;20212;-69
2021/04/12 11:37:05;;;;;;;3.25;2.72;;;24.00;41.50;;;;;;5094798;28;20337;-69
2021/04/12 11:39:41;;;;;;;4.55;3.10;;;23.90;41.80;;;;;;5101864;28;20286;-70
2021/04/12 11:42:15;;;;;;;4.90;3.00;;;24.00;41.90;;;;;;5100520;28;20207;-69
2021/04/12 11:44:47;;;;;;;6.05;3.03;;;24.30;42.00;;;;;;5108943;28;20257;-69
2021/04/12 11:47:29;;;;;;;5.47;3.10;;;24.40;41.60;;;;;;5097798;28;20681;-71
2021/04/12 11:50:14;;;;;;;4.38;2.80;;;24.60;41.60;;;;;;5095228;28;20230;-70
2021/04/12 11:52:57;;;;;;;3.60;2.97;;;24.80;41.40;;;;;;5092407;28;20291;-72
2021/04/12 11:55:34;;;;;;;4.57;2.75;;;25.20;41.00;;;;;;5095727;28;20196;-71
2021/04/12 11:58:06;;;;;;;4.93;2.88;;;25.20;40.50;;;;;;5101701;28;20240;-71
2021/04/12 12:00:43;;;;;;;3.75;3.00;;;25.10;40.50;;;;;;5096003;28;20204;-70
2021/04/12 12:03:21;;;;;;;3.42;2.88;;;25.10;40.50;;;;;;5101205;28;20207;-71
2021/04/12 12:06:07;;;;;;;4.22;2.78;;;25.00;40.60;;;;;;5102070;28;20251;-72
2021/04/12 12:08:51;;;;;;;5.72;3.65;;;24.90;40.80;;;;;;5095216;28;20204;-71
2021/04/12 12:11:29;;;;;;;3.53;3.17;;;24.70;40.70;;;;;;5095213;28;20224;-71
2021/04/12 12:14:01;;;;;;;5.57;2.80;;;24.50;40.80;;;;;;5096405;28;20239;-73
2021/04/12 12:16:30;;;;;;;4.70;3.05;;;24.50;41.10;;;;;;5097065;28;20201;-71
2021/04/12 12:19:01;;;;;;;4.28;2.90;;;24.40;41.30;;;;;;5094625;28;20262;-71
2021/04/12 12:21:34;;;;;;;3.72;2.50;;;24.20;41.20;;;;;;5082732;28;20737;-74
2021/04/12 12:24:18;;;;;;;4.55;3.17;;;23.80;41.70;;;;;;5097969;28;20208;-73
2021/04/12 12:27:04;;;;;;;4.25;2.83;;;23.40;42.90;;;;;;5086771;28;20277;-72
2021/04/12 12:29:36;;;;;;;4.18;2.58;;;23.10;42.60;;;;;;5097647;28;20203;-72
2021/04/12 12:32:21;;;;;;;9.00;2.92;;;22.80;42.90;;;;;;5097455;28;20605;-72
2021/04/12 12:35:01;;;;;;;5.30;3.17;;;22.50;43.40;;;;;;5099561;28;20575;-70
2021/04/12 12:37:45;;;;;;;5.43;3.25;;;22.10;43.90;;;;;;5099140;28;20210;-72
2021/04/12 12:40:18;;;;;;;2.97;2.58;;;21.90;44.50;;;;;;5099063;28;20300;-72
2021/04/12 12:43:01;;;;;;;6.03;3.00;;;21.70;44.70;;;;;;5096475;28;20234;-70
2021/04/12 12:45:31;;;;;;;7.85;2.78;;;21.50;44.90;;;;;;5086931;28;20216;-69
2021/04/12 12:48:05;;;;;;;4.53;3.17;;;21.30;45.40;;;;;;5088663;28;20210;-72
2021/04/12 12:50:44;;;;;;;3.80;2.83;;;21.00;45.60;;;;;;5089735;28;20207;-71
2021/04/12 12:53:20;;;;;;;3.83;2.90;;;20.80;46.10;;;;;;5100346;28;20226;-72
2021/04/12 12:55:51;;;;;;;6.88;3.00;;;20.60;46.40;;;;;;5099995;28;20242;-70
2021/04/12 12:58:21;;;;;;;3.67;2.88;;;20.40;47.20;;;;;;5098885;28;20216;-72
2021/04/12 13:00:53;;;;;;;7.05;3.60;;;20.20;47.00;;;;;;5092998;28;20216;-73
2021/04/12 13:03:30;;;;;;;4.20;3.08;;;20.10;47.30;;;;;;5093483;28;20200;-71
2021/04/12 13:05:58;;;;;;;6.65;3.03;;;19.90;47.60;;;;;;5094559;28;20224;-72
2021/04/12 13:08:33;;;;;;;6.05;3.08;;;19.80;47.80;;;;;;5095815;28;20212;-73
2021/04/12 13:11:09;;;;;;;7.40;3.00;;;19.70;48.00;;;;;;5095979;28;20204;-72
2021/04/12 13:13:37;;;;;;;5.88;3.25;;;19.60;48.50;;;;;;5095430;28;20236;-74
2021/04/12 13:16:16;;;;;;;6.32;2.75;;;19.50;48.80;;;;;;5112417;28;20199;-71
2021/04/12 13:18:54;;;;;;;6.93;4.57;;;19.40;49.10;;;;;;5094006;28;20625;-71
2021/04/12 13:21:30;;;;;;;4.05;2.58;;;19.30;49.20;;;;;;5094472;28;20293;-71
2021/04/12 13:24:09;;;;;;;6.95;3.85;;;19.30;49.40;;;;;;5094381;28;20563;-73
2021/04/12 13:26:40;;;;;;;4.13;2.83;;;19.20;49.50;;;;;;5081122;28;20708;-72
2021/04/12 13:29:11;;;;;;;5.13;2.70;;;19.20;49.50;;;;;;5093975;28;20265;-73
2021/04/12 13:31:50;;;;;;;5.55;3.15;;;19.10;49.50;;;;;;5090530;28;20205;-72
2021/04/12 13:34:27;;;;;;;4.57;3.03;;;19.00;49.50;;;;;;5073611;28;20205;-71
2021/04/12 13:36:58;;;;;;;3.85;2.88;;;18.90;49.80;;;;;;5093591;28;20192;-74
2021/04/12 13:39:41;;;;;;;4.55;3.65;;;18.90;50.20;;;;;;5095603;28;20212;-74
2021/04/12 13:42:26;;;;;;;8.18;3.03;;;18.80;50.30;;;;;;5093210;28;20228;-72
2021/04/12 13:45:01;;;;;;;7.35;2.95;;;18.80;50.70;;;;;;5090291;28;20201;-72
2021/04/12 13:47:36;;;;;;;4.38;3.08;;;18.80;50.80;;;;;;5092994;28;20749;-74
2021/04/12 13:50:13;;;;;;;5.60;3.17;;;18.70;50.90;;;;;;5099451;28;20199;-73
2021/04/12 13:52:56;;;;;;;5.65;3.17;;;18.70;50.90;;;;;;5097467;28;20212;-72
2021/04/12 13:55:29;;;;;;;3.60;2.80;;;18.70;50.90;;;;;;5094883;28;20197;-73
2021/04/12 13:58:06;;;;;;;5.43;2.80;;;18.60;51.10;;;;;;5094840;28;20236;-72
2021/04/12 14:00:36;;;;;;;5.15;2.95;;;18.60;51.40;;;;;;5091512;28;20208;-71
2021/04/12 14:03:17;;;;;;;5.38;3.47;;;18.50;51.40;;;;;;5094225;28;20210;-72
2021/04/12 14:06:04;;;;;;;8.05;3.55;;;18.50;51.60;;;;;;5101468;28;20219;-72
2021/04/12 14:08:42;;;;;;;5.90;3.42;;;18.50;51.90;;;;;;5091498;28;20228;-71
2021/04/12 14:11:21;;;;;;;5.97;3.10;;;18.40;51.80;;;;;;5088285;28;20196;-71
2021/04/12 14:13:56;;;;;;;6.65;3.10;;;18.40;52.00;;;;;;5096467;28;20268;-72
2021/04/12 14:16:25;;;;;;;4.20;3.20;;;18.40;52.00;;;;;;5096810;28;20196;-72
2021/04/12 14:19:05;;;;;;;4.27;2.70;;;18.30;52.20;;;;;;5091578;28;20211;-72
2021/04/12 14:21:35;;;;;;;5.05;2.83;;;18.30;52.50;;;;;;5098019;28;20540;-72
2021/04/12 14:24:07;;;;;;;7.05;3.20;;;18.20;52.70;;;;;;5107288;28;20204;-72
2021/04/12 14:26:47;;;;;;;5.30;3.03;;;18.20;52.80;;;;;;5101065;28;20228;-71
2021/04/12 14:29:27;;;;;;;5.45;3.20;;;18.20;52.90;;;;;;5093361;28;20292;-70
2021/04/12 14:32:03;;;;;;;7.68;2.92;;;18.10;53.10;;;;;;5097819;28;20204;-69
2021/04/12 14:34:45;;;;;;;8.60;3.13;;;18.10;53.10;;;;;;5097329;28;20565;-72
2021/04/12 14:37:22;;;;;;;4.60;2.90;;;18.10;53.20;;;;;;5099766;28;20631;-70
2021/04/12 14:39:50;;;;;;;4.88;3.05;;;18.00;53.10;;;;;;5098596;28;20242;-71
2021/04/12 14:42:21;;;;;;;8.15;2.85;;;18.00;53.10;;;;;;5099396;28;20196;-70